sensor_id;sensor_type;location;lat;lon;timestamp;temperature;humidity
11140;DHT22;5624;49.388;11.350;2023-04-25T00:01:38;6.80;87.40
11140;DHT22;5624;49.388;11.350;2023-04-25T00:04:04;6.70;87.60
11140;DHT22;5624;49.388;11.350;2023-04-25T00:06:32;6.70;87.40
11140;DHT22;5624;49.388;11.350;2023-04-25T00:08:57;6.70;87.50
11140;DHT22;5624;49.388;11.350;2023-04-25T00:11:23;6.70;88.10
11140;DHT22;5624;49.388;11.350;2023-04-25T00:13:49;6.70;88.40
11140;DHT22;5624;49.388;11.350;2023-04-25T00:16:18;6.60;88.40
11140;DHT22;5624;49.388;11.350;2023-04-25T00:18:43;6.70;88.10
11140;DHT22;5624;49.388;11.350;2023-04-25T00:21:11;6.70;88.30
11140;DHT22;5624;49.388;11.350;2023-04-25T00:23:37;6.60;88.30
11140;DHT22;5624;49.388;11.350;2023-04-25T00:26:04;6.60;88.70
11140;DHT22;5624;49.388;11.350;2023-04-25T00:28:30;6.80;87.70
11140;DHT22;5624;49.388;11.350;2023-04-25T00:30:55;6.80;87.00
11140;DHT22;5624;49.388;11.350;2023-04-25T00:33:21;6.80;87.30
11140;DHT22;5624;49.388;11.350;2023-04-25T00:35:47;6.90;87.30
11140;DHT22;5624;49.388;11.350;2023-04-25T00:38:12;6.80;87.30
11140;DHT22;5624;49.388;11.350;2023-04-25T00:40:38;6.80;87.70
11140;DHT22;5624;49.388;11.350;2023-04-25T00:43:04;6.80;88.20
11140;DHT22;5624;49.388;11.350;2023-04-25T00:45:30;6.90;88.20
11140;DHT22;5624;49.388;11.350;2023-04-25T00:47:56;6.90;87.70
11140;DHT22;5624;49.388;11.350;2023-04-25T00:50:23;6.90;87.50
11140;DHT22;5624;49.388;11.350;2023-04-25T00:52:48;6.90;87.50
11140;DHT22;5624;49.388;11.350;2023-04-25T00:55:14;6.90;87.40
11140;DHT22;5624;49.388;11.350;2023-04-25T00:57:42;6.90;87.70
11140;DHT22;5624;49.388;11.350;2023-04-25T01:00:08;7.00;87.80
11140;DHT22;5624;49.388;11.350;2023-04-25T01:02:36;6.90;87.90
11140;DHT22;5624;49.388;11.350;2023-04-25T01:05:03;7.00;88.30
11140;DHT22;5624;49.388;11.350;2023-04-25T01:07:29;7.00;88.40
11140;DHT22;5624;49.388;11.350;2023-04-25T01:09:55;6.90;88.90
11140;DHT22;5624;49.388;11.350;2023-04-25T01:12:21;6.90;89.70
11140;DHT22;5624;49.388;11.350;2023-04-25T01:14:47;6.90;90.40
11140;DHT22;5624;49.388;11.350;2023-04-25T01:17:13;6.80;90.60
11140;DHT22;5624;49.388;11.350;2023-04-25T01:19:38;6.80;91.00
11140;DHT22;5624;49.388;11.350;2023-04-25T01:22:05;6.80;91.50
11140;DHT22;5624;49.388;11.350;2023-04-25T01:24:33;6.80;91.90
11140;DHT22;5624;49.388;11.350;2023-04-25T01:27:00;6.70;92.50
11140;DHT22;5624;49.388;11.350;2023-04-25T01:29:27;6.80;92.60
11140;DHT22;5624;49.388;11.350;2023-04-25T01:31:53;6.60;93.30
11140;DHT22;5624;49.388;11.350;2023-04-25T01:34:19;6.70;93.60
11140;DHT22;5624;49.388;11.350;2023-04-25T01:36:47;6.60;94.20
11140;DHT22;5624;49.388;11.350;2023-04-25T01:39:13;6.60;94.10
11140;DHT22;5624;49.388;11.350;2023-04-25T01:41:39;6.60;94.40
11140;DHT22;5624;49.388;11.350;2023-04-25T01:44:04;6.60;95.10
11140;DHT22;5624;49.388;11.350;2023-04-25T01:46:31;6.60;94.30
11140;DHT22;5624;49.388;11.350;2023-04-25T01:48:56;6.60;94.40
11140;DHT22;5624;49.388;11.350;2023-04-25T01:51:22;6.50;94.90
11140;DHT22;5624;49.388;11.350;2023-04-25T01:53:48;6.50;95.20
11140;DHT22;5624;49.388;11.350;2023-04-25T01:56:13;6.50;95.60
11140;DHT22;5624;49.388;11.350;2023-04-25T01:58:39;6.50;95.30
11140;DHT22;5624;49.388;11.350;2023-04-25T02:01:04;6.50;95.00
11140;DHT22;5624;49.388;11.350;2023-04-25T02:03:31;6.50;94.50
11140;DHT22;5624;49.388;11.350;2023-04-25T02:05:57;6.50;95.20
11140;DHT22;5624;49.388;11.350;2023-04-25T02:08:22;6.50;95.60
11140;DHT22;5624;49.388;11.350;2023-04-25T02:10:48;6.40;96.10
11140;DHT22;5624;49.388;11.350;2023-04-25T02:13:14;6.50;96.20
11140;DHT22;5624;49.388;11.350;2023-04-25T02:15:39;6.50;95.80
11140;DHT22;5624;49.388;11.350;2023-04-25T02:18:06;6.50;95.60
11140;DHT22;5624;49.388;11.350;2023-04-25T02:20:32;6.50;95.70
11140;DHT22;5624;49.388;11.350;2023-04-25T02:22:57;6.50;95.10
11140;DHT22;5624;49.388;11.350;2023-04-25T02:25:23;6.50;95.30
11140;DHT22;5624;49.388;11.350;2023-04-25T02:27:49;6.50;95.40
11140;DHT22;5624;49.388;11.350;2023-04-25T02:30:16;6.50;95.30
11140;DHT22;5624;49.388;11.350;2023-04-25T02:32:42;6.50;95.10
11140;DHT22;5624;49.388;11.350;2023-04-25T02:35:08;6.50;95.10
11140;DHT22;5624;49.388;11.350;2023-04-25T02:37:35;6.50;95.10
11140;DHT22;5624;49.388;11.350;2023-04-25T02:40:01;6.50;94.70
11140;DHT22;5624;49.388;11.350;2023-04-25T02:42:27;6.50;94.80
11140;DHT22;5624;49.388;11.350;2023-04-25T02:44:53;6.40;94.90
11140;DHT22;5624;49.388;11.350;2023-04-25T02:47:18;6.40;95.00
11140;DHT22;5624;49.388;11.350;2023-04-25T02:49:44;6.30;94.80
11140;DHT22;5624;49.388;11.350;2023-04-25T02:52:10;6.30;95.50
11140;DHT22;5624;49.388;11.350;2023-04-25T02:54:36;6.30;95.50
11140;DHT22;5624;49.388;11.350;2023-04-25T02:57:02;6.30;96.20
11140;DHT22;5624;49.388;11.350;2023-04-25T02:59:28;6.20;96.20
11140;DHT22;5624;49.388;11.350;2023-04-25T03:01:53;6.20;96.20
11140;DHT22;5624;49.388;11.350;2023-04-25T03:04:19;6.20;96.50
11140;DHT22;5624;49.388;11.350;2023-04-25T03:06:46;6.20;96.80
11140;DHT22;5624;49.388;11.350;2023-04-25T03:09:11;6.20;96.80
11140;DHT22;5624;49.388;11.350;2023-04-25T03:11:38;6.20;97.10
11140;DHT22;5624;49.388;11.350;2023-04-25T03:14:04;6.10;97.40
11140;DHT22;5624;49.388;11.350;2023-04-25T03:16:30;6.20;96.90
11140;DHT22;5624;49.388;11.350;2023-04-25T03:18:56;6.20;96.50
11140;DHT22;5624;49.388;11.350;2023-04-25T03:21:22;6.20;96.60
11140;DHT22;5624;49.388;11.350;2023-04-25T03:23:47;6.30;96.00
11140;DHT22;5624;49.388;11.350;2023-04-25T03:26:13;6.30;95.60
11140;DHT22;5624;49.388;11.350;2023-04-25T03:28:39;6.20;95.50
11140;DHT22;5624;49.388;11.350;2023-04-25T03:31:05;6.20;95.00
11140;DHT22;5624;49.388;11.350;2023-04-25T03:33:31;6.10;95.50
11140;DHT22;5624;49.388;11.350;2023-04-25T03:35:57;6.10;95.70
11140;DHT22;5624;49.388;11.350;2023-04-25T03:38:22;6.00;95.80
11140;DHT22;5624;49.388;11.350;2023-04-25T03:40:49;6.00;95.80
11140;DHT22;5624;49.388;11.350;2023-04-25T03:43:16;5.90;95.70
11140;DHT22;5624;49.388;11.350;2023-04-25T03:45:41;5.90;96.00
11140;DHT22;5624;49.388;11.350;2023-04-25T03:48:07;5.90;96.30
11140;DHT22;5624;49.388;11.350;2023-04-25T03:50:32;5.80;96.60
11140;DHT22;5624;49.388;11.350;2023-04-25T03:52:58;5.80;96.80
11140;DHT22;5624;49.388;11.350;2023-04-25T03:55:23;5.90;96.80
11140;DHT22;5624;49.388;11.350;2023-04-25T03:57:49;5.90;96.60
11140;DHT22;5624;49.388;11.350;2023-04-25T04:00:15;5.90;96.60
11140;DHT22;5624;49.388;11.350;2023-04-25T04:02:40;5.90;96.10
11140;DHT22;5624;49.388;11.350;2023-04-25T04:05:06;5.80;95.70
11140;DHT22;5624;49.388;11.350;2023-04-25T04:07:32;5.80;95.80
11140;DHT22;5624;49.388;11.350;2023-04-25T04:09:59;5.90;95.50
11140;DHT22;5624;49.388;11.350;2023-04-25T04:12:24;5.90;94.80
11140;DHT22;5624;49.388;11.350;2023-04-25T04:14:50;5.80;95.00
11140;DHT22;5624;49.388;11.350;2023-04-25T04:17:15;5.80;94.60
11140;DHT22;5624;49.388;11.350;2023-04-25T04:19:41;5.80;94.30
11140;DHT22;5624;49.388;11.350;2023-04-25T04:22:07;5.80;94.10
11140;DHT22;5624;49.388;11.350;2023-04-25T04:24:32;5.80;94.00
11140;DHT22;5624;49.388;11.350;2023-04-25T04:26:58;5.80;94.10
11140;DHT22;5624;49.388;11.350;2023-04-25T04:29:24;5.80;93.90
11140;DHT22;5624;49.388;11.350;2023-04-25T04:31:50;5.80;93.60
11140;DHT22;5624;49.388;11.350;2023-04-25T04:34:19;5.80;93.20
11140;DHT22;5624;49.388;11.350;2023-04-25T04:36:45;5.90;92.80
11140;DHT22;5624;49.388;11.350;2023-04-25T04:39:14;6.00;92.30
11140;DHT22;5624;49.388;11.350;2023-04-25T04:41:39;6.00;92.00
11140;DHT22;5624;49.388;11.350;2023-04-25T04:44:05;6.10;91.80
11140;DHT22;5624;49.388;11.350;2023-04-25T04:46:32;6.10;91.70
11140;DHT22;5624;49.388;11.350;2023-04-25T04:49:06;6.10;91.80
11140;DHT22;5624;49.388;11.350;2023-04-25T04:51:32;6.10;91.70
11140;DHT22;5624;49.388;11.350;2023-04-25T04:53:58;6.20;91.70
11140;DHT22;5624;49.388;11.350;2023-04-25T04:56:30;6.20;91.60
11140;DHT22;5624;49.388;11.350;2023-04-25T04:58:57;6.30;90.40
11140;DHT22;5624;49.388;11.350;2023-04-25T05:01:23;6.40;90.40
11140;DHT22;5624;49.388;11.350;2023-04-25T05:03:48;6.40;90.70
11140;DHT22;5624;49.388;11.350;2023-04-25T05:06:16;6.40;90.10
11140;DHT22;5624;49.388;11.350;2023-04-25T05:08:41;6.50;90.60
11140;DHT22;5624;49.388;11.350;2023-04-25T05:11:07;6.50;89.80
11140;DHT22;5624;49.388;11.350;2023-04-25T05:13:33;6.50;89.60
11140;DHT22;5624;49.388;11.350;2023-04-25T05:15:58;6.50;89.80
11140;DHT22;5624;49.388;11.350;2023-04-25T05:18:24;6.50;89.90
11140;DHT22;5624;49.388;11.350;2023-04-25T05:20:49;6.50;89.70
11140;DHT22;5624;49.388;11.350;2023-04-25T05:23:15;6.50;89.90
11140;DHT22;5624;49.388;11.350;2023-04-25T05:25:41;6.40;89.50
11140;DHT22;5624;49.388;11.350;2023-04-25T05:28:13;6.40;90.30
11140;DHT22;5624;49.388;11.350;2023-04-25T05:30:40;6.50;89.90
11140;DHT22;5624;49.388;11.350;2023-04-25T05:33:05;6.50;89.60
11140;DHT22;5624;49.388;11.350;2023-04-25T05:35:32;6.50;90.10
11140;DHT22;5624;49.388;11.350;2023-04-25T05:37:57;6.50;90.00
11140;DHT22;5624;49.388;11.350;2023-04-25T05:40:23;6.60;89.90
11140;DHT22;5624;49.388;11.350;2023-04-25T05:42:48;6.80;89.30
11140;DHT22;5624;49.388;11.350;2023-04-25T05:45:14;6.90;87.90
11140;DHT22;5624;49.388;11.350;2023-04-25T05:47:40;7.00;88.10
11140;DHT22;5624;49.388;11.350;2023-04-25T05:50:06;7.20;87.30
11140;DHT22;5624;49.388;11.350;2023-04-25T05:52:31;7.20;87.10
11140;DHT22;5624;49.388;11.350;2023-04-25T05:54:57;7.30;86.80
11140;DHT22;5624;49.388;11.350;2023-04-25T05:57:24;7.30;86.60
11140;DHT22;5624;49.388;11.350;2023-04-25T05:59:50;7.30;86.20
11140;DHT22;5624;49.388;11.350;2023-04-25T06:02:17;7.20;85.70
11140;DHT22;5624;49.388;11.350;2023-04-25T06:04:42;7.10;85.90
11140;DHT22;5624;49.388;11.350;2023-04-25T06:07:08;7.00;86.90
11140;DHT22;5624;49.388;11.350;2023-04-25T06:09:34;6.90;86.70
11140;DHT22;5624;49.388;11.350;2023-04-25T06:11:59;6.90;87.70
11140;DHT22;5624;49.388;11.350;2023-04-25T06:14:26;6.90;88.20
11140;DHT22;5624;49.388;11.350;2023-04-25T06:16:52;6.90;88.50
11140;DHT22;5624;49.388;11.350;2023-04-25T06:19:17;7.10;87.90
11140;DHT22;5624;49.388;11.350;2023-04-25T06:21:44;7.10;87.40
11140;DHT22;5624;49.388;11.350;2023-04-25T06:24:09;7.20;88.10
11140;DHT22;5624;49.388;11.350;2023-04-25T06:26:35;7.30;87.20
11140;DHT22;5624;49.388;11.350;2023-04-25T06:29:01;7.30;87.20
11140;DHT22;5624;49.388;11.350;2023-04-25T06:31:27;7.40;86.10
11140;DHT22;5624;49.388;11.350;2023-04-25T06:33:54;7.30;86.10
11140;DHT22;5624;49.388;11.350;2023-04-25T06:36:20;7.30;87.00
11140;DHT22;5624;49.388;11.350;2023-04-25T06:38:50;7.30;86.80
11140;DHT22;5624;49.388;11.350;2023-04-25T06:41:16;7.30;86.40
11140;DHT22;5624;49.388;11.350;2023-04-25T06:43:41;7.30;87.30
11140;DHT22;5624;49.388;11.350;2023-04-25T06:46:07;7.30;86.60
11140;DHT22;5624;49.388;11.350;2023-04-25T06:48:33;7.30;87.30
11140;DHT22;5624;49.388;11.350;2023-04-25T06:50:59;7.30;86.70
11140;DHT22;5624;49.388;11.350;2023-04-25T06:53:25;7.20;87.60
11140;DHT22;5624;49.388;11.350;2023-04-25T06:55:50;7.20;88.20
11140;DHT22;5624;49.388;11.350;2023-04-25T06:58:16;7.20;88.20
11140;DHT22;5624;49.388;11.350;2023-04-25T07:00:41;7.20;88.10
11140;DHT22;5624;49.388;11.350;2023-04-25T07:03:07;7.10;88.30
11140;DHT22;5624;49.388;11.350;2023-04-25T07:05:33;7.10;88.60
11140;DHT22;5624;49.388;11.350;2023-04-25T07:07:58;7.00;88.90
11140;DHT22;5624;49.388;11.350;2023-04-25T07:10:25;7.00;88.80
11140;DHT22;5624;49.388;11.350;2023-04-25T07:12:51;6.90;88.70
11140;DHT22;5624;49.388;11.350;2023-04-25T07:15:17;6.90;88.80
11140;DHT22;5624;49.388;11.350;2023-04-25T07:17:42;6.90;89.00
11140;DHT22;5624;49.388;11.350;2023-04-25T07:20:08;6.90;89.40
11140;DHT22;5624;49.388;11.350;2023-04-25T07:22:35;6.90;89.20
11140;DHT22;5624;49.388;11.350;2023-04-25T07:25:00;7.00;88.70
11140;DHT22;5624;49.388;11.350;2023-04-25T07:27:26;7.00;88.50
11140;DHT22;5624;49.388;11.350;2023-04-25T07:29:52;7.10;88.10
11140;DHT22;5624;49.388;11.350;2023-04-25T07:32:17;7.20;87.80
11140;DHT22;5624;49.388;11.350;2023-04-25T07:34:43;7.30;86.50
11140;DHT22;5624;49.388;11.350;2023-04-25T07:37:09;7.40;85.90
11140;DHT22;5624;49.388;11.350;2023-04-25T07:39:34;7.50;85.00
11140;DHT22;5624;49.388;11.350;2023-04-25T07:42:00;7.50;84.70
11140;DHT22;5624;49.388;11.350;2023-04-25T07:44:27;7.60;84.30
11140;DHT22;5624;49.388;11.350;2023-04-25T07:46:53;7.50;84.80
11140;DHT22;5624;49.388;11.350;2023-04-25T07:49:18;7.50;84.80
11140;DHT22;5624;49.388;11.350;2023-04-25T07:51:44;7.50;85.20
11140;DHT22;5624;49.388;11.350;2023-04-25T07:54:14;7.60;84.40
11140;DHT22;5624;49.388;11.350;2023-04-25T07:56:40;7.70;83.20
11140;DHT22;5624;49.388;11.350;2023-04-25T07:59:05;7.80;83.70
11140;DHT22;5624;49.388;11.350;2023-04-25T08:01:31;7.90;82.30
11140;DHT22;5624;49.388;11.350;2023-04-25T08:03:57;8.00;81.90
11140;DHT22;5624;49.388;11.350;2023-04-25T08:06:22;8.00;81.30
11140;DHT22;5624;49.388;11.350;2023-04-25T08:08:48;7.80;81.40
11140;DHT22;5624;49.388;11.350;2023-04-25T08:11:13;7.70;82.40
11140;DHT22;5624;49.388;11.350;2023-04-25T08:13:39;7.30;82.90
11140;DHT22;5624;49.388;11.350;2023-04-25T08:16:05;7.20;82.20
11140;DHT22;5624;49.388;11.350;2023-04-25T08:18:30;6.90;82.00
11140;DHT22;5624;49.388;11.350;2023-04-25T08:20:56;6.60;83.30
11140;DHT22;5624;49.388;11.350;2023-04-25T08:23:22;6.50;84.80
11140;DHT22;5624;49.388;11.350;2023-04-25T08:25:47;6.50;85.80
11140;DHT22;5624;49.388;11.350;2023-04-25T08:28:13;6.50;86.20
11140;DHT22;5624;49.388;11.350;2023-04-25T08:30:39;6.60;86.10
11140;DHT22;5624;49.388;11.350;2023-04-25T08:33:05;6.90;86.90
11140;DHT22;5624;49.388;11.350;2023-04-25T08:35:31;7.30;86.10
11140;DHT22;5624;49.388;11.350;2023-04-25T08:37:58;7.60;84.00
11140;DHT22;5624;49.388;11.350;2023-04-25T08:40:27;7.90;82.90
11140;DHT22;5624;49.388;11.350;2023-04-25T08:42:57;8.00;80.70
11140;DHT22;5624;49.388;11.350;2023-04-25T08:45:23;8.10;80.10
11140;DHT22;5624;49.388;11.350;2023-04-25T08:47:52;8.20;78.70
11140;DHT22;5624;49.388;11.350;2023-04-25T08:50:18;8.10;78.70
11140;DHT22;5624;49.388;11.350;2023-04-25T08:52:47;8.30;76.80
11140;DHT22;5624;49.388;11.350;2023-04-25T08:55:13;8.20;75.60
11140;DHT22;5624;49.388;11.350;2023-04-25T08:57:41;8.10;74.20
11140;DHT22;5624;49.388;11.350;2023-04-25T09:00:11;8.10;71.40
11140;DHT22;5624;49.388;11.350;2023-04-25T09:02:39;8.20;73.70
11140;DHT22;5624;49.388;11.350;2023-04-25T09:05:05;8.50;73.40
11140;DHT22;5624;49.388;11.350;2023-04-25T09:07:32;8.80;70.80
11140;DHT22;5624;49.388;11.350;2023-04-25T09:09:58;9.20;70.10
11140;DHT22;5624;49.388;11.350;2023-04-25T09:12:27;9.50;69.00
11140;DHT22;5624;49.388;11.350;2023-04-25T09:15:07;9.70;69.30
11140;DHT22;5624;49.388;11.350;2023-04-25T09:17:33;9.90;66.30
11140;DHT22;5624;49.388;11.350;2023-04-25T09:20:13;10.10;67.30
11140;DHT22;5624;49.388;11.350;2023-04-25T09:22:39;10.70;65.90
11140;DHT22;5624;49.388;11.350;2023-04-25T09:25:13;11.50;66.10
11140;DHT22;5624;49.388;11.350;2023-04-25T09:27:52;12.20;63.00
11140;DHT22;5624;49.388;11.350;2023-04-25T09:30:19;13.10;59.70
11140;DHT22;5624;49.388;11.350;2023-04-25T09:32:56;13.90;60.40
11140;DHT22;5624;49.388;11.350;2023-04-25T09:35:24;14.40;56.50
11140;DHT22;5624;49.388;11.350;2023-04-25T09:37:50;14.70;54.80
11140;DHT22;5624;49.388;11.350;2023-04-25T09:40:18;14.10;53.20
11140;DHT22;5624;49.388;11.350;2023-04-25T09:42:43;13.80;54.80
11140;DHT22;5624;49.388;11.350;2023-04-25T09:45:12;13.40;55.80
11140;DHT22;5624;49.388;11.350;2023-04-25T09:47:38;12.80;56.80
11140;DHT22;5624;49.388;11.350;2023-04-25T09:50:14;13.00;57.20
11140;DHT22;5624;49.388;11.350;2023-04-25T09:52:40;13.20;54.80
11140;DHT22;5624;49.388;11.350;2023-04-25T09:55:06;13.30;54.40
11140;DHT22;5624;49.388;11.350;2023-04-25T09:57:32;13.30;56.60
11140;DHT22;5624;49.388;11.350;2023-04-25T10:00:00;13.80;55.60
11140;DHT22;5624;49.388;11.350;2023-04-25T10:02:27;14.80;52.60
11140;DHT22;5624;49.388;11.350;2023-04-25T10:04:54;15.00;50.10
11140;DHT22;5624;49.388;11.350;2023-04-25T10:07:24;14.60;50.40
11140;DHT22;5624;49.388;11.350;2023-04-25T10:10:02;15.20;50.80
11140;DHT22;5624;49.388;11.350;2023-04-25T10:12:29;14.60;49.30
11140;DHT22;5624;49.388;11.350;2023-04-25T10:14:58;15.10;47.80
11140;DHT22;5624;49.388;11.350;2023-04-25T10:17:23;15.10;47.50
11140;DHT22;5624;49.388;11.350;2023-04-25T10:19:51;14.50;46.40
11140;DHT22;5624;49.388;11.350;2023-04-25T10:22:42;14.20;47.70
11140;DHT22;5624;49.388;11.350;2023-04-25T10:25:10;14.10;48.50
11140;DHT22;5624;49.388;11.350;2023-04-25T10:27:36;14.30;49.10
11140;DHT22;5624;49.388;11.350;2023-04-25T10:30:04;14.20;48.50
11140;DHT22;5624;49.388;11.350;2023-04-25T10:32:31;14.00;48.90
11140;DHT22;5624;49.388;11.350;2023-04-25T10:35:23;14.00;49.30
11140;DHT22;5624;49.388;11.350;2023-04-25T10:38:09;13.80;48.70
11140;DHT22;5624;49.388;11.350;2023-04-25T10:40:36;13.50;49.50
11140;DHT22;5624;49.388;11.350;2023-04-25T10:43:34;13.30;49.40
11140;DHT22;5624;49.388;11.350;2023-04-25T10:46:00;13.90;49.90
11140;DHT22;5624;49.388;11.350;2023-04-25T10:48:29;14.40;49.60
11140;DHT22;5624;49.388;11.350;2023-04-25T10:51:08;14.40;48.10
11140;DHT22;5624;49.388;11.350;2023-04-25T10:53:34;13.80;48.10
11140;DHT22;5624;49.388;11.350;2023-04-25T10:56:00;13.40;49.20
11140;DHT22;5624;49.388;11.350;2023-04-25T10:58:26;12.80;50.50
11140;DHT22;5624;49.388;11.350;2023-04-25T11:00:52;12.80;51.10
11140;DHT22;5624;49.388;11.350;2023-04-25T11:03:21;13.00;51.70
11140;DHT22;5624;49.388;11.350;2023-04-25T11:05:48;12.70;50.70
11140;DHT22;5624;49.388;11.350;2023-04-25T11:08:18;13.00;50.70
11140;DHT22;5624;49.388;11.350;2023-04-25T11:10:47;13.00;49.60
11140;DHT22;5624;49.388;11.350;2023-04-25T11:13:12;12.70;48.80
11140;DHT22;5624;49.388;11.350;2023-04-25T11:15:38;12.80;52.50
11140;DHT22;5624;49.388;11.350;2023-04-25T11:18:04;13.20;50.10
11140;DHT22;5624;49.388;11.350;2023-04-25T11:20:29;12.90;48.70
11140;DHT22;5624;49.388;11.350;2023-04-25T11:22:57;12.60;48.80
11140;DHT22;5624;49.388;11.350;2023-04-25T11:25:24;12.20;47.30
11140;DHT22;5624;49.388;11.350;2023-04-25T11:27:58;11.90;48.30
11140;DHT22;5624;49.388;11.350;2023-04-25T11:30:25;11.40;50.40
11140;DHT22;5624;49.388;11.350;2023-04-25T11:32:51;12.00;48.30
11140;DHT22;5624;49.388;11.350;2023-04-25T11:35:19;12.90;49.00
11140;DHT22;5624;49.388;11.350;2023-04-25T11:37:45;13.40;45.30
11140;DHT22;5624;49.388;11.350;2023-04-25T11:40:11;13.70;46.90
11140;DHT22;5624;49.388;11.350;2023-04-25T11:42:44;14.30;44.20
11140;DHT22;5624;49.388;11.350;2023-04-25T11:45:11;14.20;43.50
11140;DHT22;5624;49.388;11.350;2023-04-25T11:47:37;13.90;46.00
11140;DHT22;5624;49.388;11.350;2023-04-25T11:50:05;12.80;46.50
11140;DHT22;5624;49.388;11.350;2023-04-25T11:52:40;12.10;48.70
11140;DHT22;5624;49.388;11.350;2023-04-25T11:55:13;11.50;51.70
11140;DHT22;5624;49.388;11.350;2023-04-25T11:57:39;11.50;53.40
11140;DHT22;5624;49.388;11.350;2023-04-25T12:00:14;11.80;53.60
11140;DHT22;5624;49.388;11.350;2023-04-25T12:02:43;12.10;51.40
11140;DHT22;5624;49.388;11.350;2023-04-25T12:05:11;12.00;50.20
11140;DHT22;5624;49.388;11.350;2023-04-25T12:07:37;11.40;51.70
11140;DHT22;5624;49.388;11.350;2023-04-25T12:10:08;11.00;52.30
11140;DHT22;5624;49.388;11.350;2023-04-25T12:12:35;10.80;52.90
11140;DHT22;5624;49.388;11.350;2023-04-25T12:15:17;10.60;53.30
11140;DHT22;5624;49.388;11.350;2023-04-25T12:17:48;10.40;55.00
11140;DHT22;5624;49.388;11.350;2023-04-25T12:20:23;10.50;54.10
11140;DHT22;5624;49.388;11.350;2023-04-25T12:22:49;10.50;53.90
11140;DHT22;5624;49.388;11.350;2023-04-25T12:25:38;10.80;54.20
11140;DHT22;5624;49.388;11.350;2023-04-25T12:28:19;11.30;52.10
11140;DHT22;5624;49.388;11.350;2023-04-25T12:31:04;12.00;52.60
11140;DHT22;5624;49.388;11.350;2023-04-25T12:33:35;12.50;50.00
11140;DHT22;5624;49.388;11.350;2023-04-25T12:36:03;12.50;49.60
11140;DHT22;5624;49.388;11.350;2023-04-25T12:38:38;12.10;48.90
11140;DHT22;5624;49.388;11.350;2023-04-25T12:41:04;11.80;50.00
11140;DHT22;5624;49.388;11.350;2023-04-25T12:43:30;11.70;50.70
11140;DHT22;5624;49.388;11.350;2023-04-25T12:45:56;11.80;51.10
11140;DHT22;5624;49.388;11.350;2023-04-25T12:48:22;12.00;51.70
11140;DHT22;5624;49.388;11.350;2023-04-25T12:50:49;11.80;50.20
11140;DHT22;5624;49.388;11.350;2023-04-25T12:53:15;11.70;49.40
11140;DHT22;5624;49.388;11.350;2023-04-25T12:55:41;11.40;50.20
11140;DHT22;5624;49.388;11.350;2023-04-25T12:58:07;11.30;50.30
11140;DHT22;5624;49.388;11.350;2023-04-25T13:00:33;11.10;50.40
11140;DHT22;5624;49.388;11.350;2023-04-25T13:02:58;11.10;50.00
11140;DHT22;5624;49.388;11.350;2023-04-25T13:05:25;11.30;50.00
11140;DHT22;5624;49.388;11.350;2023-04-25T13:07:50;11.50;49.30
11140;DHT22;5624;49.388;11.350;2023-04-25T13:10:17;11.80;49.30
11140;DHT22;5624;49.388;11.350;2023-04-25T13:12:43;12.10;48.80
11140;DHT22;5624;49.388;11.350;2023-04-25T13:15:09;12.20;48.60
11140;DHT22;5624;49.388;11.350;2023-04-25T13:17:37;12.30;48.10
11140;DHT22;5624;49.388;11.350;2023-04-25T13:20:06;12.20;47.40
11140;DHT22;5624;49.388;11.350;2023-04-25T13:22:34;11.90;48.50
11140;DHT22;5624;49.388;11.350;2023-04-25T13:25:02;11.30;48.70
11140;DHT22;5624;49.388;11.350;2023-04-25T13:27:28;10.90;49.60
11140;DHT22;5624;49.388;11.350;2023-04-25T13:29:54;10.60;51.50
11140;DHT22;5624;49.388;11.350;2023-04-25T13:32:20;10.50;52.80
11140;DHT22;5624;49.388;11.350;2023-04-25T13:34:45;10.40;52.30
11140;DHT22;5624;49.388;11.350;2023-04-25T13:37:11;10.30;53.10
11140;DHT22;5624;49.388;11.350;2023-04-25T13:39:36;10.60;52.60
11140;DHT22;5624;49.388;11.350;2023-04-25T13:42:02;11.40;52.10
11140;DHT22;5624;49.388;11.350;2023-04-25T13:44:28;12.30;49.30
11140;DHT22;5624;49.388;11.350;2023-04-25T13:46:54;12.90;47.10
11140;DHT22;5624;49.388;11.350;2023-04-25T13:49:19;12.90;47.50
11140;DHT22;5624;49.388;11.350;2023-04-25T13:51:45;12.70;45.70
11140;DHT22;5624;49.388;11.350;2023-04-25T13:54:11;12.40;48.30
11140;DHT22;5624;49.388;11.350;2023-04-25T13:56:36;12.00;47.50
11140;DHT22;5624;49.388;11.350;2023-04-25T13:59:02;11.60;49.30
11140;DHT22;5624;49.388;11.350;2023-04-25T14:01:28;11.20;49.30
11140;DHT22;5624;49.388;11.350;2023-04-25T14:03:55;11.10;50.80
11140;DHT22;5624;49.388;11.350;2023-04-25T14:06:21;10.80;50.60
11140;DHT22;5624;49.388;11.350;2023-04-25T14:08:50;10.50;51.60
11140;DHT22;5624;49.388;11.350;2023-04-25T14:11:15;10.50;52.90
11140;DHT22;5624;49.388;11.350;2023-04-25T14:13:43;10.40;52.20
11140;DHT22;5624;49.388;11.350;2023-04-25T14:16:09;10.30;52.60
11140;DHT22;5624;49.388;11.350;2023-04-25T14:18:35;10.40;53.00
11140;DHT22;5624;49.388;11.350;2023-04-25T14:21:00;10.30;53.20
11140;DHT22;5624;49.388;11.350;2023-04-25T14:23:26;10.20;54.10
11140;DHT22;5624;49.388;11.350;2023-04-25T14:25:52;10.20;54.20
11140;DHT22;5624;49.388;11.350;2023-04-25T14:28:18;10.20;54.00
11140;DHT22;5624;49.388;11.350;2023-04-25T14:30:43;10.20;54.30
11140;DHT22;5624;49.388;11.350;2023-04-25T14:33:09;10.20;54.90
11140;DHT22;5624;49.388;11.350;2023-04-25T14:35:35;10.30;54.60
11140;DHT22;5624;49.388;11.350;2023-04-25T14:38:00;10.20;55.10
11140;DHT22;5624;49.388;11.350;2023-04-25T14:40:26;10.10;54.50
11140;DHT22;5624;49.388;11.350;2023-04-25T14:42:52;10.20;55.40
11140;DHT22;5624;49.388;11.350;2023-04-25T14:45:17;10.30;55.80
11140;DHT22;5624;49.388;11.350;2023-04-25T14:47:43;10.50;54.90
11140;DHT22;5624;49.388;11.350;2023-04-25T14:50:09;10.70;53.80
11140;DHT22;5624;49.388;11.350;2023-04-25T14:52:35;10.70;53.50
11140;DHT22;5624;49.388;11.350;2023-04-25T14:55:02;10.80;54.40
11140;DHT22;5624;49.388;11.350;2023-04-25T14:57:31;10.70;52.70
11140;DHT22;5624;49.388;11.350;2023-04-25T14:59:57;10.60;53.70
11140;DHT22;5624;49.388;11.350;2023-04-25T15:02:24;10.40;53.00
11140;DHT22;5624;49.388;11.350;2023-04-25T15:04:49;10.10;54.30
11140;DHT22;5624;49.388;11.350;2023-04-25T15:07:15;9.90;55.70
11140;DHT22;5624;49.388;11.350;2023-04-25T15:09:41;9.80;55.30
11140;DHT22;5624;49.388;11.350;2023-04-25T15:12:07;9.80;55.40
11140;DHT22;5624;49.388;11.350;2023-04-25T15:14:33;9.80;55.50
11140;DHT22;5624;49.388;11.350;2023-04-25T15:16:59;9.70;56.20
11140;DHT22;5624;49.388;11.350;2023-04-25T15:19:25;9.50;56.50
11140;DHT22;5624;49.388;11.350;2023-04-25T15:21:51;9.50;56.40
11140;DHT22;5624;49.388;11.350;2023-04-25T15:24:17;9.60;57.10
11140;DHT22;5624;49.388;11.350;2023-04-25T15:26:43;9.70;57.10
11140;DHT22;5624;49.388;11.350;2023-04-25T15:29:10;9.80;57.20
11140;DHT22;5624;49.388;11.350;2023-04-25T15:31:37;9.80;57.60
11140;DHT22;5624;49.388;11.350;2023-04-25T15:34:03;9.90;56.00
11140;DHT22;5624;49.388;11.350;2023-04-25T15:36:29;9.80;56.50
11140;DHT22;5624;49.388;11.350;2023-04-25T15:38:55;9.70;56.80